Portada
METAR-TAF:

METAR-TAF

Aeroports :

Tirupati, Índia

latitud: 13-38-16N, longitud: 79-32-50E, altitud: 107 m

Observació

L'informe es va fer fa 25 minuts, a les 07:30 UTC
Vent 3 kt amb direcció variable
Temperatura 39°C
Humitat 31%
Pressió 1004 hPa
Visibilitat: 7000 m
Núvols disperses a una alçada de 2000 ft
Núvols disperses a una alçada de 10000 ft

METAR: VOTP 060730Z VRB03KT 7000 SCT020 SCT100 39/19 Q1004

Hora: 13:25 (07:55 UTC)

Pronòstic

L'informe es va fer fa 2 hores i 55 minuts, a les 05:00 UTC
Pronòstic vàlid del 06 a les 06 UTC al 06 a les 15 UTC
Vent 8 kt del Oest/Sud-Oest
Visibilitat: 6000 m
Escasses núvols a una alçada de 2000 ft
Núvols disperses a una alçada de 2500 ft
Temporalment
l' 06 a les 09 UTC al 06 a les 15 UTC
Visibilitat: 4000 m
Escasses núvols a una alçada de 3000 ft, Cumulonimbus.
Cel ennuvolat a una alçada de 10000 ft
tempesta, pluja

TAF: VOTP 060500Z 0606/0615 25008KT 6000 FEW020 SCT025 TEMPO 0609/0615 4000 -TSRA FEW030CB BKN100

Observacions i pronòstics meteorològics de més de 4000 aeroports (METAR i TAF).

Les estacions disponibles són els punts grocs i vermells al mapa.

Posi el ratolí al punt desitjat per veure el nom de l'estació.

Feu clic per veure les observacions i els pronòstics meteorològics.

Per canviar el mapa: feu clic els botons verds amb una creu de color negre per apropar; al botó verd amb un guió per allunyar la imatge; o en les fletxes verdes per a mapes adjacents.


METAR-TAF: